Kakusyunmaru — JL6732 — position and weather

sailwx.info

Track history (hours):
 
Tides and Currents Weather Stations Pressure Air Temp Water Temp Dewpoint Dewpoint Depression Visibility Wind Speed Wind Dir Waves Ship Positions

Kakusyunmaru

Last reported at 2017-Oct-19 02:08 UTC. Time now 2017-Oct-19 05:31 UTC.
Position N 35°32' E 140°01'.

Length 103 m; draft 6.8 m.

Type: Tanker. MMSI: 431501785.

Date/timePositionNaut miles runAvg speedWind from/ knotsBaromVisibWave heightAir tempDewpointWater temp
2017-Oct-19 02:08N 35°32' E 140°01'210.9
2017-Oct-19 01:59N 35°31' E 139°59'611.5
2017-Oct-19 01:30N 35°29' E 139°53'611.2
2017-Oct-19 01:00N 35°25' E 139°48'510.7
2017-Oct-19 00:30N 35°21' E 139°45'5 9.8
2017-Oct-19 00:00N 35°16' E 139°46'510.5
2017-Oct-18 23:30N 35°11' E 139°47'511.0
2017-Oct-18 23:00N 35°05' E 139°45'611.0
2017-Oct-18 22:30N 35°01' E 139°41'611.6
2017-Oct-18 22:00N 34°58' E 139°35'1112.2
2017-Oct-18 21:08N 34°53' E 139°24'311.9
2017-Oct-18 20:55N 34°51' E 139°21'  
2017-Oct-16 06:04N 33°57' E 134°56'213.7
2017-Oct-16 05:53N 33°59' E 134°54'  
Track history (hours):
 
Tides and Currents Weather Stations Pressure Air Temp Water Temp Dewpoint Dewpoint Depression Visibility Wind Speed Wind Dir Waves Ship Positions

Kakusyunmaru

Last reported at 2017-Oct-19 02:08 UTC. Time now 2017-Oct-19 05:31 UTC.
Position N 35°32' E 140°01'.

Length 103 m; draft 6.8 m.

Type: Tanker. MMSI: 431501785.

Date/timePositionNaut miles runAvg speedWind from/ knotsBaromVisibWave heightAir tempDewpointWater temp
2017-Oct-19 02:08N 35°32' E 140°01'210.9
2017-Oct-19 01:59N 35°31' E 139°59'611.5
2017-Oct-19 01:30N 35°29' E 139°53'611.2
2017-Oct-19 01:00N 35°25' E 139°48'510.7
2017-Oct-19 00:30N 35°21' E 139°45'5 9.8
2017-Oct-19 00:00N 35°16' E 139°46'510.5
2017-Oct-18 23:30N 35°11' E 139°47'511.0
2017-Oct-18 23:00N 35°05' E 139°45'611.0
2017-Oct-18 22:30N 35°01' E 139°41'611.6
2017-Oct-18 22:00N 34°58' E 139°35'1112.2
2017-Oct-18 21:08N 34°53' E 139°24'311.9
2017-Oct-18 20:55N 34°51' E 139°21'  
2017-Oct-16 06:04N 33°57' E 134°56'213.7
2017-Oct-16 05:53N 33°59' E 134°54'  

Dump ship's entire track history